createdAt,value
2023-05-16T00:01:31.065Z,32.84
2023-05-16T00:03:59.215Z,32.87
2023-05-16T00:06:27.321Z,32.84
2023-05-16T00:08:55.243Z,32.91
2023-05-16T00:11:23.561Z,33.00
2023-05-16T00:13:51.704Z,32.91
2023-05-16T00:16:21.869Z,32.92
2023-05-16T00:18:51.098Z,32.87
2023-05-16T00:21:20.395Z,32.94
2023-05-16T00:23:49.930Z,33.03
2023-05-16T00:26:18.301Z,32.89
2023-05-16T00:28:46.370Z,32.91
2023-05-16T00:31:14.256Z,32.88
2023-05-16T00:33:42.264Z,32.99
2023-05-16T00:36:10.205Z,32.91
2023-05-16T00:38:38.289Z,32.84
2023-05-16T00:41:06.686Z,32.95
2023-05-16T00:43:34.644Z,32.94
2023-05-16T00:46:02.998Z,32.84
2023-05-16T00:48:31.087Z,32.92
2023-05-16T00:50:59.112Z,32.92
2023-05-16T00:53:27.407Z,33.03
2023-05-16T00:55:56.485Z,32.95
2023-05-16T00:58:25.043Z,32.95
2023-05-16T01:00:53.412Z,32.89
2023-05-16T01:03:21.606Z,32.85
2023-05-16T01:05:49.916Z,32.85
2023-05-16T01:08:17.937Z,32.88
2023-05-16T01:11:03.257Z,32.94
2023-05-16T01:13:42.326Z,32.85
2023-05-16T01:16:17.118Z,33.02
2023-05-16T01:18:57.346Z,32.93
2023-05-16T01:21:42.800Z,32.89
2023-05-16T01:24:44.027Z,32.88
2023-05-16T01:27:12.296Z,32.95
2023-05-16T01:29:40.301Z,32.91
2023-05-16T01:32:08.333Z,32.82
2023-05-16T01:34:36.289Z,32.78
2023-05-16T01:37:32.423Z,32.85
2023-05-16T01:40:08.098Z,32.95
2023-05-16T01:42:37.656Z,32.84
2023-05-16T01:45:28.248Z,32.90
2023-05-16T01:48:05.002Z,32.84
2023-05-16T01:50:35.075Z,32.83
2023-05-16T01:53:12.252Z,32.74
2023-05-16T01:55:47.973Z,32.78
2023-05-16T01:58:16.632Z,32.70
2023-05-16T02:00:45.088Z,32.75
2023-05-16T02:03:13.426Z,32.69
2023-05-16T02:05:41.534Z,32.57
2023-05-16T02:08:11.856Z,32.68
2023-05-16T02:10:41.564Z,32.66
2023-05-16T02:13:09.626Z,32.60
2023-05-16T02:15:37.860Z,32.57
2023-05-16T02:18:05.958Z,32.63
2023-05-16T02:20:34.142Z,32.63
2023-05-16T02:23:03.448Z,32.63
2023-05-16T02:25:33.814Z,32.45
2023-05-16T02:28:01.814Z,32.48
2023-05-16T02:30:30.076Z,32.41
2023-05-16T02:32:58.599Z,32.37
2023-05-16T02:35:27.080Z,32.40
2023-05-16T02:37:55.970Z,32.43
2023-05-16T02:40:26.085Z,32.33
2023-05-16T02:42:54.285Z,32.50
2023-05-16T02:45:22.356Z,32.48
2023-05-16T02:47:52.109Z,32.29
2023-05-16T02:50:20.676Z,32.37
2023-05-16T02:52:49.215Z,32.35
2023-05-16T02:55:22.230Z,32.29
2023-05-16T02:57:51.126Z,32.44
2023-05-16T03:00:20.002Z,32.36
2023-05-16T03:02:48.245Z,32.38
2023-05-16T03:05:17.239Z,32.29
2023-05-16T03:07:45.508Z,32.41
2023-05-16T03:10:13.777Z,32.32
2023-05-16T03:12:41.740Z,32.30
2023-05-16T03:15:10.346Z,32.35
2023-05-16T03:17:38.818Z,32.28
2023-05-16T03:20:09.058Z,32.19
2023-05-16T03:22:37.352Z,32.18
2023-05-16T03:25:06.215Z,32.26
2023-05-16T03:27:34.282Z,32.21
2023-05-16T03:30:02.555Z,32.30
2023-05-16T03:32:30.690Z,32.32
2023-05-16T03:34:58.820Z,32.26
2023-05-16T03:37:26.740Z,32.25
2023-05-16T03:39:54.873Z,32.14
2023-05-16T03:42:23.028Z,32.26
2023-05-16T03:44:51.043Z,32.28
2023-05-16T03:47:19.450Z,32.20
2023-05-16T03:49:47.430Z,32.16
2023-05-16T03:52:15.404Z,32.25
2023-05-16T03:54:43.438Z,32.25
2023-05-16T03:57:11.553Z,32.27
2023-05-16T03:59:40.064Z,32.24
2023-05-16T04:02:08.236Z,32.22
2023-05-16T04:04:36.554Z,32.19
2023-05-16T04:07:04.693Z,32.14
2023-05-16T04:09:32.868Z,32.16
2023-05-16T04:12:03.184Z,32.16
2023-05-16T04:14:32.012Z,32.11
2023-05-16T04:17:00.326Z,32.12
2023-05-16T04:19:28.452Z,32.03
2023-05-16T04:21:56.479Z,32.08
2023-05-16T04:24:26.595Z,32.06
2023-05-16T04:26:55.416Z,32.09
2023-05-16T04:29:23.722Z,32.05
2023-05-16T04:31:51.805Z,32.03
2023-05-16T04:34:19.986Z,31.94
2023-05-16T04:36:48.373Z,31.97
2023-05-16T04:39:16.345Z,31.95
2023-05-16T04:41:44.267Z,31.97
2023-05-16T04:44:12.330Z,31.92
2023-05-16T04:46:40.677Z,32.01
2023-05-16T04:49:08.790Z,31.59
2023-05-16T04:51:36.858Z,30.76
2023-05-16T04:54:04.832Z,29.89
2023-05-16T04:56:32.840Z,29.34
2023-05-16T04:59:00.883Z,28.99
2023-05-16T05:01:28.978Z,29.02
2023-05-16T05:03:57.116Z,29.42
2023-05-16T05:06:25.620Z,29.53
2023-05-16T05:08:54.756Z,29.65
2023-05-16T05:11:23.253Z,29.87
2023-05-16T05:13:52.983Z,29.83
2023-05-16T05:16:21.307Z,30.27
2023-05-16T05:18:49.551Z,30.70
2023-05-16T05:21:18.572Z,30.97
2023-05-16T05:23:47.016Z,31.28
2023-05-16T05:26:14.952Z,31.56
2023-05-16T05:28:47.915Z,31.63
2023-05-16T05:31:22.519Z,31.93
2023-05-16T05:33:50.541Z,32.20
2023-05-16T05:36:18.473Z,32.38
2023-05-16T05:38:46.540Z,32.70
2023-05-16T05:41:14.523Z,32.67
2023-05-16T05:43:42.546Z,32.79
2023-05-16T05:46:10.803Z,32.95
2023-05-16T05:48:38.850Z,33.08
2023-05-16T05:51:06.945Z,33.30
2023-05-16T05:53:34.925Z,33.35
2023-05-16T05:56:02.848Z,32.97
2023-05-16T05:58:30.814Z,32.62
2023-05-16T06:00:58.766Z,32.25
2023-05-16T06:03:26.788Z,32.21
2023-05-16T06:05:54.795Z,32.01
2023-05-16T06:08:22.696Z,31.27
2023-05-16T06:10:50.719Z,31.55
2023-05-16T06:13:18.677Z,32.32
2023-05-16T06:15:51.806Z,32.57
2023-05-16T06:18:20.377Z,32.90
2023-05-16T06:20:48.303Z,33.00
2023-05-16T06:23:17.445Z,33.44
2023-05-16T06:25:46.390Z,33.63
2023-05-16T06:28:14.387Z,33.79
2023-05-16T06:30:42.880Z,34.04
2023-05-16T06:33:10.819Z,34.22
2023-05-16T06:35:39.364Z,34.26
2023-05-16T06:38:07.400Z,34.45
2023-05-16T06:40:35.468Z,34.52
2023-05-16T06:43:03.736Z,34.71
2023-05-16T06:45:31.966Z,34.76
2023-05-16T06:48:00.148Z,34.75
2023-05-16T06:50:28.451Z,35.02
2023-05-16T06:52:56.519Z,35.15
2023-05-16T06:55:25.199Z,35.30
2023-05-16T06:57:53.284Z,34.92
2023-05-16T07:00:21.701Z,34.37
2023-05-16T07:02:50.922Z,33.93
2023-05-16T07:05:19.373Z,34.25
2023-05-16T07:07:49.551Z,34.87
2023-05-16T07:10:17.944Z,35.02
2023-05-16T07:12:46.227Z,35.10
2023-05-16T07:15:14.411Z,35.24
2023-05-16T07:17:42.516Z,35.55
2023-05-16T07:20:13.838Z,35.58
2023-05-16T07:22:42.077Z,35.55
2023-05-16T07:25:12.858Z,35.42
2023-05-16T07:27:45.476Z,35.58
2023-05-16T07:30:14.386Z,35.77
2023-05-16T07:32:43.534Z,35.74
2023-05-16T07:35:11.586Z,35.76
2023-05-16T07:37:44.612Z,35.59
2023-05-16T07:40:13.177Z,35.76
2023-05-16T07:42:41.119Z,35.66
2023-05-16T07:45:09.714Z,35.74
2023-05-16T07:47:38.185Z,35.67
2023-05-16T07:50:06.518Z,35.55
2023-05-16T07:52:35.173Z,35.56
2023-05-16T07:55:03.725Z,34.63
2023-05-16T07:57:31.835Z,32.31
2023-05-16T07:59:59.959Z,30.73
2023-05-16T08:02:31.192Z,30.59
2023-05-16T08:04:59.479Z,31.07
2023-05-16T08:07:27.483Z,31.36
2023-05-16T08:09:55.773Z,31.76
2023-05-16T08:12:24.094Z,32.47
2023-05-16T08:14:52.233Z,33.96
2023-05-16T08:17:20.310Z,34.64
2023-05-16T08:19:48.291Z,34.90
2023-05-16T08:22:16.430Z,35.26
2023-05-16T08:24:44.357Z,35.31
2023-05-16T08:27:13.020Z,35.57
2023-05-16T08:29:41.644Z,35.65
2023-05-16T08:32:12.953Z,35.54
2023-05-16T08:34:41.009Z,35.39
2023-05-16T08:37:08.994Z,35.29
2023-05-16T08:39:39.206Z,35.35
2023-05-16T08:42:07.726Z,35.21
2023-05-16T08:44:36.226Z,35.37
2023-05-16T08:47:12.270Z,35.51
2023-05-16T08:49:41.674Z,35.41
2023-05-16T08:52:10.328Z,35.84
2023-05-16T08:54:38.750Z,34.79
2023-05-16T08:57:06.902Z,33.59
2023-05-16T08:59:35.073Z,33.30
2023-05-16T09:02:04.050Z,32.49
2023-05-16T09:04:32.116Z,32.44
2023-05-16T09:07:00.584Z,32.43
2023-05-16T09:09:28.654Z,32.62
2023-05-16T09:11:56.876Z,32.64
2023-05-16T09:14:25.148Z,32.76
2023-05-16T09:17:12.198Z,33.56
2023-05-16T09:19:41.773Z,34.30
2023-05-16T09:22:16.487Z,34.75
2023-05-16T09:24:45.070Z,35.54
2023-05-16T09:27:14.534Z,36.01
2023-05-16T09:29:50.282Z,36.28
2023-05-16T09:32:18.648Z,36.96
2023-05-16T09:34:49.356Z,36.51
2023-05-16T09:37:18.218Z,36.34
2023-05-16T09:39:54.945Z,37.28
2023-05-16T09:42:23.767Z,37.83
2023-05-16T09:44:56.249Z,38.17
2023-05-16T09:47:24.245Z,38.43
2023-05-16T09:49:52.971Z,38.73
2023-05-16T09:52:21.481Z,38.92
2023-05-16T09:54:50.204Z,36.50
2023-05-16T09:57:27.110Z,36.14
2023-05-16T09:59:55.241Z,36.13
2023-05-16T10:02:23.275Z,36.20
2023-05-16T10:04:51.332Z,36.14
2023-05-16T10:07:19.755Z,36.04
2023-05-16T10:09:47.981Z,36.15
2023-05-16T10:12:16.005Z,36.93
2023-05-16T10:14:46.578Z,37.35
2023-05-16T10:17:15.973Z,37.51
2023-05-16T10:19:44.050Z,37.74
2023-05-16T10:22:12.229Z,38.64
2023-05-16T10:24:45.139Z,38.52
2023-05-16T10:27:14.477Z,38.79
2023-05-16T10:29:53.655Z,39.15
2023-05-16T10:32:23.734Z,39.36
2023-05-16T10:34:52.582Z,39.22
2023-05-16T10:37:20.673Z,39.05
2023-05-16T10:39:48.585Z,39.02
2023-05-16T10:42:18.543Z,39.27
2023-05-16T10:44:58.352Z,39.15
2023-05-16T10:47:30.717Z,38.97
2023-05-16T10:49:58.727Z,38.64
2023-05-16T10:52:33.946Z,38.26
2023-05-16T10:55:03.252Z,38.18
2023-05-16T10:57:32.872Z,38.24
2023-05-16T11:00:02.250Z,38.29
2023-05-16T11:02:33.866Z,38.39
2023-05-16T11:05:02.894Z,38.27
2023-05-16T11:07:35.240Z,38.13
2023-05-16T11:10:07.151Z,37.97
2023-05-16T11:12:42.450Z,37.63
2023-05-16T11:15:28.338Z,37.52
2023-05-16T11:18:10.474Z,37.66
2023-05-16T11:20:39.197Z,37.44
2023-05-16T11:23:19.374Z,37.21
2023-05-16T11:25:57.881Z,37.35
2023-05-16T11:28:26.995Z,37.33
2023-05-16T11:30:57.751Z,37.20
2023-05-16T11:33:25.923Z,37.16
2023-05-16T11:36:15.052Z,37.22
2023-05-16T11:38:44.508Z,37.15
2023-05-16T11:41:12.946Z,37.12
2023-05-16T11:43:42.163Z,37.11
2023-05-16T11:46:16.689Z,37.10
2023-05-16T11:48:47.658Z,37.14
2023-05-16T11:51:19.042Z,37.10
2023-05-16T11:53:49.943Z,36.82
2023-05-16T11:56:18.691Z,36.88
2023-05-16T11:58:47.306Z,37.04
2023-05-16T12:01:15.372Z,36.96
2023-05-16T12:03:43.467Z,36.81
2023-05-16T12:06:11.612Z,36.64
2023-05-16T12:08:39.674Z,36.59
2023-05-16T12:11:07.746Z,36.80
2023-05-16T12:13:35.838Z,36.62
2023-05-16T12:16:03.887Z,36.54
2023-05-16T12:18:31.876Z,36.80
2023-05-16T12:20:59.963Z,36.61
2023-05-16T12:23:29.407Z,36.56
2023-05-16T12:25:58.024Z,36.52
2023-05-16T12:28:26.038Z,36.59
2023-05-16T12:30:53.988Z,36.53
2023-05-16T12:33:23.389Z,36.53
2023-05-16T12:35:53.041Z,36.50
2023-05-16T12:38:21.790Z,36.42
2023-05-16T12:40:50.033Z,36.47
2023-05-16T12:43:21.789Z,36.46
2023-05-16T12:45:56.769Z,36.42
2023-05-16T12:48:33.428Z,36.47
2023-05-16T12:51:14.553Z,36.54
2023-05-16T12:53:49.196Z,36.44
2023-05-16T12:56:23.449Z,36.42
2023-05-16T12:58:52.611Z,36.43
2023-05-16T13:01:23.008Z,36.63
2023-05-16T13:03:51.134Z,36.48
2023-05-16T13:06:19.120Z,36.43
2023-05-16T13:08:47.323Z,36.51
2023-05-16T13:11:16.168Z,36.38
2023-05-16T13:13:44.849Z,36.43
2023-05-16T13:16:13.007Z,36.43
2023-05-16T13:18:41.411Z,36.42
2023-05-16T13:21:09.503Z,36.66
2023-05-16T13:23:38.062Z,36.43
2023-05-16T13:26:06.215Z,36.55
2023-05-16T13:28:34.324Z,36.46
2023-05-16T13:31:02.473Z,36.52
2023-05-16T13:33:30.590Z,36.44
2023-05-16T13:35:58.545Z,36.28
2023-05-16T13:38:26.881Z,36.46
2023-05-16T13:40:54.937Z,36.49
2023-05-16T13:43:22.936Z,36.40
2023-05-16T13:45:50.927Z,36.35
2023-05-16T13:48:21.825Z,36.50
2023-05-16T13:50:50.160Z,36.44
2023-05-16T13:53:18.548Z,36.35
2023-05-16T13:55:46.543Z,36.48
2023-05-16T13:58:14.585Z,36.43
2023-05-16T14:00:45.643Z,36.59
2023-05-16T14:03:14.613Z,36.68
2023-05-16T14:05:43.126Z,36.37
2023-05-16T14:08:11.192Z,36.73
2023-05-16T14:10:39.546Z,36.63
2023-05-16T14:13:07.623Z,36.58
2023-05-16T14:15:35.995Z,36.44
2023-05-16T14:18:04.861Z,36.69
2023-05-16T14:20:33.184Z,36.47
2023-05-16T14:23:01.234Z,36.60
2023-05-16T14:25:29.571Z,36.80
2023-05-16T14:27:59.773Z,36.74
2023-05-16T14:30:28.476Z,36.70
2023-05-16T14:32:57.010Z,36.60
2023-05-16T14:35:25.160Z,36.74
2023-05-16T14:37:53.091Z,36.54
2023-05-16T14:40:21.933Z,36.43
2023-05-16T14:42:50.845Z,36.56
2023-05-16T14:45:18.808Z,36.39
2023-05-16T14:47:46.989Z,36.50
2023-05-16T14:50:15.047Z,36.63
2023-05-16T14:52:42.962Z,36.59
2023-05-16T14:55:11.266Z,36.40
2023-05-16T14:57:39.375Z,36.45
2023-05-16T15:00:08.993Z,36.58
2023-05-16T15:02:37.031Z,36.32
2023-05-16T15:05:07.065Z,36.47
2023-05-16T15:07:35.394Z,36.30
2023-05-16T15:10:03.857Z,36.22
2023-05-16T15:12:31.937Z,36.09
2023-05-16T15:14:59.904Z,36.19
2023-05-16T15:17:27.911Z,35.91
2023-05-16T15:19:55.858Z,36.06
2023-05-16T15:22:23.963Z,36.02
2023-05-16T15:24:52.019Z,35.91
2023-05-16T15:27:20.205Z,36.01
2023-05-16T15:29:48.148Z,35.85
2023-05-16T15:32:17.158Z,35.91
2023-05-16T15:34:45.828Z,35.92
2023-05-16T15:37:13.916Z,35.65
2023-05-16T15:39:42.433Z,35.77
2023-05-16T15:42:11.644Z,35.72
2023-05-16T15:44:39.817Z,35.49
2023-05-16T15:47:08.554Z,35.56
2023-05-16T15:49:36.723Z,35.31
2023-05-16T15:52:05.315Z,35.37
2023-05-16T15:54:33.652Z,35.21
2023-05-16T15:57:02.048Z,35.07
2023-05-16T15:59:30.046Z,35.00
2023-05-16T16:01:58.865Z,34.92
2023-05-16T16:04:26.791Z,34.93
2023-05-16T16:06:55.001Z,34.88
2023-05-16T16:09:23.046Z,34.70
2023-05-16T16:11:56.092Z,34.59
2023-05-16T16:14:24.648Z,34.66
2023-05-16T16:16:52.829Z,34.61
2023-05-16T16:19:20.886Z,34.71
2023-05-16T16:21:49.023Z,34.53
2023-05-16T16:24:17.284Z,34.57
2023-05-16T16:26:45.570Z,34.45
2023-05-16T16:29:13.598Z,34.44
2023-05-16T16:31:41.603Z,34.45
2023-05-16T16:34:09.601Z,34.44
2023-05-16T16:36:38.086Z,34.34
2023-05-16T16:39:06.206Z,34.36
2023-05-16T16:41:34.256Z,34.24
2023-05-16T16:44:03.448Z,34.21
2023-05-16T16:46:31.480Z,34.00
2023-05-16T16:48:59.496Z,34.01
2023-05-16T16:51:29.068Z,34.20
2023-05-16T16:53:58.810Z,33.99
2023-05-16T16:56:28.122Z,34.08
2023-05-16T16:58:56.519Z,33.85
2023-05-16T17:01:25.100Z,33.77
2023-05-16T17:03:54.870Z,33.82
2023-05-16T17:06:23.564Z,33.87
2023-05-16T17:08:51.727Z,33.86
2023-05-16T17:11:23.415Z,33.82
2023-05-16T17:13:52.479Z,33.62
2023-05-16T17:16:20.735Z,33.72
2023-05-16T17:18:49.083Z,33.48
2023-05-16T17:21:17.057Z,33.59
2023-05-16T17:23:45.087Z,33.48
2023-05-16T17:26:13.844Z,33.63
2023-05-16T17:28:41.904Z,33.58
2023-05-16T17:31:10.012Z,33.33
2023-05-16T17:33:38.173Z,33.40
2023-05-16T17:36:07.501Z,33.40
2023-05-16T17:38:35.675Z,33.40
2023-05-16T17:41:03.662Z,33.32
2023-05-16T17:43:31.684Z,33.05
2023-05-16T17:45:59.764Z,33.25
2023-05-16T17:48:27.965Z,33.21
2023-05-16T17:50:56.478Z,33.22
2023-05-16T17:53:25.229Z,33.04
2023-05-16T17:55:53.567Z,33.01
2023-05-16T17:58:24.228Z,33.08
2023-05-16T18:00:52.664Z,33.29
2023-05-16T18:03:21.464Z,33.14
2023-05-16T18:05:50.589Z,33.01
2023-05-16T18:08:18.987Z,33.00
2023-05-16T18:10:51.955Z,33.05
2023-05-16T18:13:22.121Z,33.12
2023-05-16T18:15:50.828Z,33.13
2023-05-16T18:18:18.860Z,33.04
2023-05-16T18:20:47.232Z,33.20
2023-05-16T18:23:15.771Z,32.92
2023-05-16T18:25:43.753Z,33.12
2023-05-16T18:28:12.100Z,32.95
2023-05-16T18:30:40.118Z,32.78
2023-05-16T18:33:08.524Z,33.01
2023-05-16T18:35:36.664Z,32.89
2023-05-16T18:38:04.661Z,32.88
2023-05-16T18:40:32.840Z,33.08
2023-05-16T18:43:03.382Z,33.10
2023-05-16T18:45:31.996Z,33.08
2023-05-16T18:48:00.113Z,33.13
2023-05-16T18:50:28.370Z,33.03
2023-05-16T18:52:57.732Z,33.10
2023-05-16T18:55:26.217Z,33.02
2023-05-16T18:57:54.517Z,32.93
2023-05-16T19:00:22.666Z,33.05
2023-05-16T19:02:51.239Z,32.92
2023-05-16T19:05:20.065Z,33.05
2023-05-16T19:07:49.155Z,33.02
2023-05-16T19:10:17.242Z,32.97
2023-05-16T19:12:49.084Z,32.86
2023-05-16T19:15:17.561Z,32.84
2023-05-16T19:17:45.802Z,32.73
2023-05-16T19:20:13.984Z,32.72
2023-05-16T19:22:42.063Z,32.92
2023-05-16T19:25:10.410Z,32.86
2023-05-16T19:27:38.777Z,32.80
2023-05-16T19:30:07.593Z,32.79
2023-05-16T19:32:35.761Z,32.81
2023-05-16T19:35:04.716Z,32.80
2023-05-16T19:37:32.875Z,32.96
2023-05-16T19:40:01.023Z,32.87
2023-05-16T19:42:29.070Z,32.89
2023-05-16T19:44:57.611Z,32.59
2023-05-16T19:47:25.800Z,32.83
2023-05-16T19:49:54.128Z,32.94
2023-05-16T19:52:22.807Z,32.64
2023-05-16T19:54:50.927Z,32.86
2023-05-16T19:57:19.033Z,32.58
2023-05-16T19:59:46.961Z,32.80
2023-05-16T20:02:16.352Z,32.76
2023-05-16T20:04:44.409Z,32.75
2023-05-16T20:07:12.330Z,32.77
2023-05-16T20:09:40.316Z,32.78
2023-05-16T20:12:08.575Z,32.82
2023-05-16T20:14:36.503Z,32.89
2023-05-16T20:17:04.761Z,32.67
2023-05-16T20:19:33.254Z,32.82
2023-05-16T20:22:01.743Z,32.85
2023-05-16T20:24:29.978Z,32.83
2023-05-16T20:26:58.010Z,32.81
2023-05-16T20:29:26.060Z,32.70
2023-05-16T20:31:54.120Z,32.73
2023-05-16T20:34:22.127Z,32.85
2023-05-16T20:36:50.121Z,32.65
2023-05-16T20:39:18.427Z,32.90
2023-05-16T20:41:46.934Z,32.79
2023-05-16T20:44:15.574Z,32.56
2023-05-16T20:46:43.827Z,32.66
2023-05-16T20:49:11.756Z,32.64
2023-05-16T20:51:39.719Z,32.82
2023-05-16T20:54:07.821Z,32.75
2023-05-16T20:56:35.845Z,32.77
2023-05-16T20:59:04.129Z,32.76
2023-05-16T21:01:32.110Z,32.78
2023-05-16T21:04:00.231Z,32.88
2023-05-16T21:06:28.190Z,32.74
2023-05-16T21:08:56.293Z,32.74
2023-05-16T21:11:24.360Z,32.93
2023-05-16T21:13:52.489Z,32.83
2023-05-16T21:16:20.425Z,32.91
2023-05-16T21:18:48.623Z,32.65
2023-05-16T21:21:16.919Z,32.64
2023-05-16T21:23:45.298Z,32.91
2023-05-16T21:26:13.862Z,32.67
2023-05-16T21:28:54.546Z,32.80
2023-05-16T21:31:23.871Z,32.79
2023-05-16T21:33:52.710Z,32.69
2023-05-16T21:36:21.031Z,32.75
2023-05-16T21:38:49.024Z,32.81
2023-05-16T21:41:18.229Z,32.86
2023-05-16T21:43:46.472Z,32.73
2023-05-16T21:46:17.124Z,32.75
2023-05-16T21:48:45.307Z,32.65
2023-05-16T21:51:13.268Z,32.86
2023-05-16T21:53:42.654Z,32.74
2023-05-16T21:56:10.745Z,32.72
2023-05-16T21:58:39.092Z,33.00
2023-05-16T22:01:07.523Z,32.99
2023-05-16T22:03:36.025Z,32.93
2023-05-16T22:06:04.178Z,32.83
2023-05-16T22:08:32.324Z,32.76
2023-05-16T22:11:00.766Z,32.84
2023-05-16T22:13:28.920Z,32.95
2023-05-16T22:16:04.561Z,32.87
2023-05-16T22:18:33.876Z,33.01
2023-05-16T22:21:03.214Z,33.01
2023-05-16T22:23:31.333Z,32.92
2023-05-16T22:25:59.432Z,32.97
2023-05-16T22:28:27.788Z,33.01
2023-05-16T22:30:56.176Z,33.01
2023-05-16T22:33:24.725Z,32.92
2023-05-16T22:35:52.815Z,33.09
2023-05-16T22:38:21.684Z,32.99
2023-05-16T22:40:49.887Z,32.96
2023-05-16T22:43:17.932Z,33.05
2023-05-16T22:45:46.429Z,33.00
2023-05-16T22:48:14.742Z,33.06
2023-05-16T22:50:42.847Z,32.86
2023-05-16T22:53:11.102Z,32.77
2023-05-16T22:55:39.178Z,32.98
2023-05-16T22:58:08.662Z,32.80
2023-05-16T23:00:36.992Z,32.80
2023-05-16T23:03:05.069Z,32.65
2023-05-16T23:05:33.909Z,32.89
2023-05-16T23:08:03.237Z,32.90
2023-05-16T23:10:31.964Z,32.67
2023-05-16T23:13:00.174Z,32.68
2023-05-16T23:15:28.462Z,32.77
2023-05-16T23:17:56.971Z,32.70
2023-05-16T23:20:25.311Z,32.68
2023-05-16T23:22:53.389Z,32.49
2023-05-16T23:25:22.611Z,32.63
2023-05-16T23:27:50.582Z,32.60
2023-05-16T23:30:18.748Z,32.60
2023-05-16T23:32:47.058Z,32.82
2023-05-16T23:35:15.174Z,32.61
2023-05-16T23:37:43.520Z,32.54
2023-05-16T23:40:11.951Z,32.43
2023-05-16T23:42:42.573Z,32.37
2023-05-16T23:45:11.101Z,32.35
2023-05-16T23:47:39.145Z,32.42
2023-05-16T23:50:07.712Z,32.34
2023-05-16T23:52:35.809Z,32.07
2023-05-16T23:55:04.191Z,32.20
2023-05-16T23:57:32.299Z,32.22
